sensor_id;sensor_type;location;lat;lon;timestamp;P1;durP1;ratioP1;P2;durP2;ratioP2
65071;SDS011;51663;52.310;17.016;2023-04-15T00:00:28;12.33;;;7.80;;
65071;SDS011;51663;52.310;17.016;2023-04-15T00:04:21;7.30;;;6.60;;
65071;SDS011;51663;52.310;17.016;2023-04-15T00:08:08;12.83;;;7.60;;
65071;SDS011;51663;52.310;17.016;2023-04-15T00:15:22;9.47;;;7.87;;
65071;SDS011;51663;52.310;17.016;2023-04-15T00:18:24;8.80;;;7.70;;
65071;SDS011;51663;52.310;17.016;2023-04-15T00:21:26;8.77;;;7.90;;
65071;SDS011;51663;52.310;17.016;2023-04-15T00:24:35;9.07;;;8.13;;
65071;SDS011;51663;52.310;17.016;2023-04-15T00:28:37;8.77;;;7.87;;
65071;SDS011;51663;52.310;17.016;2023-04-15T00:31:49;10.33;;;8.60;;
65071;SDS011;51663;52.310;17.016;2023-04-15T00:35:39;9.53;;;8.17;;
65071;SDS011;51663;52.310;17.016;2023-04-15T00:39:50;9.00;;;7.87;;
65071;SDS011;51663;52.310;17.016;2023-04-15T00:43:10;9.70;;;8.07;;
65071;SDS011;51663;52.310;17.016;2023-04-15T00:46:36;9.07;;;8.20;;
65071;SDS011;51663;52.310;17.016;2023-04-15T00:53:22;9.53;;;8.50;;
65071;SDS011;51663;52.310;17.016;2023-04-15T01:05:14;10.00;;;8.23;;
65071;SDS011;51663;52.310;17.016;2023-04-15T01:09:01;9.33;;;8.10;;
65071;SDS011;51663;52.310;17.016;2023-04-15T01:12:13;8.90;;;8.00;;
65071;SDS011;51663;52.310;17.016;2023-04-15T01:20:34;9.83;;;8.93;;
65071;SDS011;51663;52.310;17.016;2023-04-15T01:24:10;10.93;;;8.87;;
65071;SDS011;51663;52.310;17.016;2023-04-15T01:27:17;9.00;;;8.00;;
65071;SDS011;51663;52.310;17.016;2023-04-15T01:30:42;10.43;;;8.77;;
65071;SDS011;51663;52.310;17.016;2023-04-15T01:42:17;10.13;;;8.60;;
65071;SDS011;51663;52.310;17.016;2023-04-15T01:49:20;10.13;;;7.87;;
65071;SDS011;51663;52.310;17.016;2023-04-15T01:57:01;13.37;;;9.17;;
65071;SDS011;51663;52.310;17.016;2023-04-15T02:01:16;9.63;;;8.60;;
65071;SDS011;51663;52.310;17.016;2023-04-15T02:04:36;10.07;;;8.37;;
65071;SDS011;51663;52.310;17.016;2023-04-15T02:07:55;9.40;;;8.37;;
65071;SDS011;51663;52.310;17.016;2023-04-15T02:15:40;9.23;;;8.33;;
65071;SDS011;51663;52.310;17.016;2023-04-15T02:19:12;10.03;;;9.03;;
65071;SDS011;51663;52.310;17.016;2023-04-15T02:22:55;9.43;;;8.43;;
65071;SDS011;51663;52.310;17.016;2023-04-15T02:26:23;9.27;;;8.23;;
65071;SDS011;51663;52.310;17.016;2023-04-15T02:29:25;10.73;;;8.87;;
65071;SDS011;51663;52.310;17.016;2023-04-15T02:32:39;9.93;;;8.40;;
65071;SDS011;51663;52.310;17.016;2023-04-15T02:36:23;13.90;;;9.37;;
65071;SDS011;51663;52.310;17.016;2023-04-15T02:39:25;11.50;;;9.03;;
65071;SDS011;51663;52.310;17.016;2023-04-15T02:42:30;11.97;;;10.07;;
65071;SDS011;51663;52.310;17.016;2023-04-15T02:46:01;9.07;;;8.17;;
65071;SDS011;51663;52.310;17.016;2023-04-15T02:49:04;10.03;;;9.00;;
65071;SDS011;51663;52.310;17.016;2023-04-15T02:52:09;10.53;;;9.23;;
65071;SDS011;51663;52.310;17.016;2023-04-15T02:55:47;10.90;;;9.27;;
65071;SDS011;51663;52.310;17.016;2023-04-15T02:58:51;10.07;;;9.07;;
65071;SDS011;51663;52.310;17.016;2023-04-15T03:02:10;12.63;;;9.40;;
65071;SDS011;51663;52.310;17.016;2023-04-15T03:13:10;9.97;;;8.90;;
65071;SDS011;51663;52.310;17.016;2023-04-15T03:16:12;11.90;;;10.10;;
65071;SDS011;51663;52.310;17.016;2023-04-15T03:19:17;11.83;;;9.93;;
65071;SDS011;51663;52.310;17.016;2023-04-15T03:27:26;13.43;;;9.67;;
65071;SDS011;51663;52.310;17.016;2023-04-15T03:30:35;11.63;;;9.33;;
65071;SDS011;51663;52.310;17.016;2023-04-15T03:34:39;11.17;;;9.60;;
65071;SDS011;51663;52.310;17.016;2023-04-15T03:38:08;10.60;;;9.50;;
65071;SDS011;51663;52.310;17.016;2023-04-15T03:46:06;12.13;;;10.47;;
65071;SDS011;51663;52.310;17.016;2023-04-15T03:49:08;10.30;;;9.23;;
65071;SDS011;51663;52.310;17.016;2023-04-15T03:52:14;10.60;;;9.50;;
65071;SDS011;51663;52.310;17.016;2023-04-15T03:56:28;11.93;;;9.93;;
65071;SDS011;51663;52.310;17.016;2023-04-15T03:59:52;11.43;;;10.23;;
65071;SDS011;51663;52.310;17.016;2023-04-15T04:03:09;10.93;;;9.83;;
65071;SDS011;51663;52.310;17.016;2023-04-15T04:06:31;11.53;;;10.20;;
65071;SDS011;51663;52.310;17.016;2023-04-15T04:10:09;13.23;;;11.37;;
65071;SDS011;51663;52.310;17.016;2023-04-15T04:13:34;11.13;;;10.03;;
65071;SDS011;51663;52.310;17.016;2023-04-15T04:17:51;13.73;;;10.33;;
65071;SDS011;51663;52.310;17.016;2023-04-15T04:22:05;13.33;;;10.90;;
65071;SDS011;51663;52.310;17.016;2023-04-15T04:25:17;13.03;;;10.93;;
65071;SDS011;51663;52.310;17.016;2023-04-15T04:28:21;14.57;;;12.07;;
65071;SDS011;51663;52.310;17.016;2023-04-15T04:32:12;13.40;;;11.00;;
65071;SDS011;51663;52.310;17.016;2023-04-15T04:35:18;12.40;;;11.10;;
65071;SDS011;51663;52.310;17.016;2023-04-15T04:38:48;11.20;;;10.03;;
65071;SDS011;51663;52.310;17.016;2023-04-15T04:41:50;12.77;;;10.73;;
65071;SDS011;51663;52.310;17.016;2023-04-15T04:45:01;12.70;;;11.23;;
65071;SDS011;51663;52.310;17.016;2023-04-15T04:49:21;12.20;;;11.00;;
65071;SDS011;51663;52.310;17.016;2023-04-15T04:52:25;12.43;;;10.40;;
65071;SDS011;51663;52.310;17.016;2023-04-15T04:56:06;11.47;;;10.20;;
65071;SDS011;51663;52.310;17.016;2023-04-15T04:59:43;11.50;;;10.30;;
65071;SDS011;51663;52.310;17.016;2023-04-15T05:02:55;13.33;;;11.43;;
65071;SDS011;51663;52.310;17.016;2023-04-15T05:06:08;11.73;;;10.50;;
65071;SDS011;51663;52.310;17.016;2023-04-15T05:09:13;15.20;;;11.07;;
65071;SDS011;51663;52.310;17.016;2023-04-15T05:12:16;12.70;;;10.83;;
65071;SDS011;51663;52.310;17.016;2023-04-15T05:16:27;13.17;;;11.43;;
65071;SDS011;51663;52.310;17.016;2023-04-15T05:19:32;12.90;;;11.60;;
65071;SDS011;51663;52.310;17.016;2023-04-15T05:22:59;12.57;;;11.00;;
65071;SDS011;51663;52.310;17.016;2023-04-15T05:26:07;14.57;;;12.27;;
65071;SDS011;51663;52.310;17.016;2023-04-15T05:29:53;13.83;;;12.30;;
65071;SDS011;51663;52.310;17.016;2023-04-15T05:33:19;13.13;;;11.70;;
65071;SDS011;51663;52.310;17.016;2023-04-15T05:36:46;12.50;;;11.17;;
65071;SDS011;51663;52.310;17.016;2023-04-15T05:40:03;13.70;;;12.30;;
65071;SDS011;51663;52.310;17.016;2023-04-15T05:43:52;15.87;;;12.07;;
65071;SDS011;51663;52.310;17.016;2023-04-15T05:47:26;12.47;;;11.17;;
65071;SDS011;51663;52.310;17.016;2023-04-15T05:50:34;12.37;;;11.13;;
65071;SDS011;51663;52.310;17.016;2023-04-15T06:02:30;12.13;;;10.87;;
65071;SDS011;51663;52.310;17.016;2023-04-15T06:05:44;11.53;;;10.33;;
65071;SDS011;51663;52.310;17.016;2023-04-15T06:09:41;13.73;;;11.10;;
65071;SDS011;51663;52.310;17.016;2023-04-15T06:12:51;10.97;;;9.87;;
65071;SDS011;51663;52.310;17.016;2023-04-15T06:15:56;11.70;;;10.50;;
65071;SDS011;51663;52.310;17.016;2023-04-15T06:19:22;11.70;;;10.50;;
65071;SDS011;51663;52.310;17.016;2023-04-15T06:22:36;13.00;;;11.60;;
65071;SDS011;51663;52.310;17.016;2023-04-15T06:25:39;14.83;;;10.30;;
65071;SDS011;51663;52.310;17.016;2023-04-15T06:28:57;10.87;;;9.87;;
65071;SDS011;51663;52.310;17.016;2023-04-15T06:32:22;13.43;;;10.70;;
65071;SDS011;51663;52.310;17.016;2023-04-15T06:35:37;12.83;;;11.53;;
65071;SDS011;51663;52.310;17.016;2023-04-15T06:38:55;10.00;;;9.17;;
65071;SDS011;51663;52.310;17.016;2023-04-15T06:42:09;12.13;;;10.83;;
65071;SDS011;51663;52.310;17.016;2023-04-15T06:45:15;10.37;;;9.47;;
65071;SDS011;51663;52.310;17.016;2023-04-15T06:48:36;11.03;;;9.97;;
65071;SDS011;51663;52.310;17.016;2023-04-15T06:51:54;10.43;;;9.27;;
65071;SDS011;51663;52.310;17.016;2023-04-15T06:54:57;9.53;;;8.63;;
65071;SDS011;51663;52.310;17.016;2023-04-15T06:58:00;10.20;;;9.27;;
65071;SDS011;51663;52.310;17.016;2023-04-15T07:04:37;10.03;;;9.07;;
65071;SDS011;51663;52.310;17.016;2023-04-15T07:07:41;9.93;;;9.07;;
65071;SDS011;51663;52.310;17.016;2023-04-15T07:10:47;9.63;;;8.73;;
65071;SDS011;51663;52.310;17.016;2023-04-15T07:14:10;9.93;;;8.50;;
65071;SDS011;51663;52.310;17.016;2023-04-15T07:17:53;10.53;;;9.63;;
65071;SDS011;51663;52.310;17.016;2023-04-15T07:29:31;10.80;;;9.70;;
65071;SDS011;51663;52.310;17.016;2023-04-15T07:34:02;11.73;;;10.53;;
65071;SDS011;51663;52.310;17.016;2023-04-15T07:41:05;10.53;;;9.47;;
65071;SDS011;51663;52.310;17.016;2023-04-15T07:45:35;11.37;;;10.17;;
65071;SDS011;51663;52.310;17.016;2023-04-15T07:48:37;11.10;;;10.07;;
65071;SDS011;51663;52.310;17.016;2023-04-15T07:55:08;9.10;;;8.30;;
65071;SDS011;51663;52.310;17.016;2023-04-15T07:58:16;9.70;;;8.73;;
65071;SDS011;51663;52.310;17.016;2023-04-15T08:02:01;9.83;;;8.93;;
65071;SDS011;51663;52.310;17.016;2023-04-15T08:05:04;11.07;;;9.97;;
65071;SDS011;51663;52.310;17.016;2023-04-15T08:12:08;9.87;;;9.00;;
65071;SDS011;51663;52.310;17.016;2023-04-15T08:15:13;10.67;;;9.17;;
65071;SDS011;51663;52.310;17.016;2023-04-15T08:18:22;10.73;;;9.83;;
65071;SDS011;51663;52.310;17.016;2023-04-15T08:21:50;10.17;;;9.27;;
65071;SDS011;51663;52.310;17.016;2023-04-15T08:24:56;10.50;;;9.53;;
65071;SDS011;51663;52.310;17.016;2023-04-15T08:28:07;8.83;;;8.13;;
65071;SDS011;51663;52.310;17.016;2023-04-15T08:31:25;9.57;;;8.77;;
65071;SDS011;51663;52.310;17.016;2023-04-15T08:34:39;9.40;;;8.60;;
65071;SDS011;51663;52.310;17.016;2023-04-15T08:37:42;10.27;;;9.17;;
65071;SDS011;51663;52.310;17.016;2023-04-15T08:40:47;11.03;;;9.93;;
65071;SDS011;51663;52.310;17.016;2023-04-15T08:47:38;13.93;;;11.57;;
65071;SDS011;51663;52.310;17.016;2023-04-15T08:59:17;11.13;;;10.13;;
65071;SDS011;51663;52.310;17.016;2023-04-15T09:02:36;10.50;;;9.50;;
65071;SDS011;51663;52.310;17.016;2023-04-15T09:05:43;11.53;;;10.43;;
65071;SDS011;51663;52.310;17.016;2023-04-15T09:08:46;10.53;;;9.67;;
65071;SDS011;51663;52.310;17.016;2023-04-15T09:12:21;10.57;;;9.63;;
65071;SDS011;51663;52.310;17.016;2023-04-15T09:15:42;15.43;;;9.57;;
65071;SDS011;51663;52.310;17.016;2023-04-15T09:19:24;11.37;;;10.27;;
65071;SDS011;51663;52.310;17.016;2023-04-15T09:22:35;5.93;;;5.43;;
65071;SDS011;51663;52.310;17.016;2023-04-15T09:26:02;3.13;;;2.87;;
65071;SDS011;51663;52.310;17.016;2023-04-15T09:29:23;3.10;;;2.77;;
65071;SDS011;51663;52.310;17.016;2023-04-15T09:32:26;2.70;;;2.50;;
65071;SDS011;51663;52.310;17.016;2023-04-15T09:35:32;2.10;;;1.87;;
65071;SDS011;51663;52.310;17.016;2023-04-15T09:38:39;2.43;;;2.13;;
65071;SDS011;51663;52.310;17.016;2023-04-15T09:42:07;2.67;;;2.10;;
65071;SDS011;51663;52.310;17.016;2023-04-15T09:45:15;2.30;;;2.10;;
65071;SDS011;51663;52.310;17.016;2023-04-15T09:48:22;2.07;;;1.97;;
65071;SDS011;51663;52.310;17.016;2023-04-15T09:51:34;2.27;;;2.13;;
65071;SDS011;51663;52.310;17.016;2023-04-15T09:54:37;2.60;;;2.40;;
65071;SDS011;51663;52.310;17.016;2023-04-15T09:57:48;2.10;;;1.90;;
65071;SDS011;51663;52.310;17.016;2023-04-15T10:01:02;2.70;;;2.50;;
65071;SDS011;51663;52.310;17.016;2023-04-15T10:04:27;3.30;;;3.00;;
65071;SDS011;51663;52.310;17.016;2023-04-15T10:07:38;2.80;;;2.60;;
65071;SDS011;51663;52.310;17.016;2023-04-15T10:10:50;2.90;;;2.70;;
65071;SDS011;51663;52.310;17.016;2023-04-15T10:14:21;3.20;;;3.00;;
65071;SDS011;51663;52.310;17.016;2023-04-15T10:22:46;5.00;;;4.50;;
65071;SDS011;51663;52.310;17.016;2023-04-15T10:27:07;5.30;;;4.65;;
65071;SDS011;51663;52.310;17.016;2023-04-15T10:30:35;5.63;;;4.77;;
65071;SDS011;51663;52.310;17.016;2023-04-15T10:34:23;7.72;;;4.68;;
65071;SDS011;51663;52.310;17.016;2023-04-15T10:37:44;5.37;;;4.83;;
65071;SDS011;51663;52.310;17.016;2023-04-15T10:40:46;6.20;;;4.83;;
65071;SDS011;51663;52.310;17.016;2023-04-15T10:44:02;4.33;;;3.93;;
65071;SDS011;51663;52.310;17.016;2023-04-15T10:47:20;4.00;;;3.70;;
65071;SDS011;51663;52.310;17.016;2023-04-15T10:50:25;3.63;;;3.33;;
65071;SDS011;51663;52.310;17.016;2023-04-15T10:53:54;4.55;;;4.15;;
65071;SDS011;51663;52.310;17.016;2023-04-15T10:57:22;4.30;;;4.00;;
65071;SDS011;51663;52.310;17.016;2023-04-15T11:00:43;3.90;;;3.63;;
65071;SDS011;51663;52.310;17.016;2023-04-15T11:08:01;4.60;;;3.60;;
65071;SDS011;51663;52.310;17.016;2023-04-15T11:11:05;2.60;;;2.40;;
65071;SDS011;51663;52.310;17.016;2023-04-15T11:14:13;2.70;;;2.50;;
65071;SDS011;51663;52.310;17.016;2023-04-15T11:17:26;3.00;;;2.80;;
65071;SDS011;51663;52.310;17.016;2023-04-15T11:20:31;3.67;;;3.37;;
65071;SDS011;51663;52.310;17.016;2023-04-15T11:23:41;3.40;;;3.10;;
65071;SDS011;51663;52.310;17.016;2023-04-15T11:26:48;3.43;;;3.20;;
65071;SDS011;51663;52.310;17.016;2023-04-15T11:29:59;3.90;;;3.60;;
65071;SDS011;51663;52.310;17.016;2023-04-15T11:33:03;3.83;;;3.53;;
65071;SDS011;51663;52.310;17.016;2023-04-15T11:36:08;3.50;;;3.20;;
65071;SDS011;51663;52.310;17.016;2023-04-15T11:39:21;4.00;;;3.70;;
65071;SDS011;51663;52.310;17.016;2023-04-15T11:42:45;3.80;;;3.50;;
65071;SDS011;51663;52.310;17.016;2023-04-15T11:46:05;4.27;;;3.87;;
65071;SDS011;51663;52.310;17.016;2023-04-15T11:54:11;4.53;;;4.13;;
65071;SDS011;51663;52.310;17.016;2023-04-15T11:57:29;4.78;;;4.20;;
65071;SDS011;51663;52.310;17.016;2023-04-15T12:00:35;5.07;;;4.50;;
65071;SDS011;51663;52.310;17.016;2023-04-15T12:04:02;5.17;;;4.80;;
65071;SDS011;51663;52.310;17.016;2023-04-15T12:07:58;6.43;;;4.70;;
65071;SDS011;51663;52.310;17.016;2023-04-15T12:11:29;6.13;;;5.53;;
65071;SDS011;51663;52.310;17.016;2023-04-15T12:14:47;6.43;;;5.90;;
65071;SDS011;51663;52.310;17.016;2023-04-15T12:19:03;5.87;;;5.23;;
65071;SDS011;51663;52.310;17.016;2023-04-15T12:22:15;6.07;;;5.33;;
65071;SDS011;51663;52.310;17.016;2023-04-15T12:25:18;6.07;;;5.43;;
65071;SDS011;51663;52.310;17.016;2023-04-15T12:28:21;6.30;;;5.70;;
65071;SDS011;51663;52.310;17.016;2023-04-15T12:31:23;6.50;;;5.90;;
65071;SDS011;51663;52.310;17.016;2023-04-15T12:34:28;5.97;;;5.47;;
65071;SDS011;51663;52.310;17.016;2023-04-15T12:37:34;5.17;;;4.70;;
65071;SDS011;51663;52.310;17.016;2023-04-15T12:40:45;5.60;;;3.93;;
65071;SDS011;51663;52.310;17.016;2023-04-15T12:44:34;4.20;;;3.80;;
65071;SDS011;51663;52.310;17.016;2023-04-15T12:48:02;4.17;;;2.40;;
65071;SDS011;51663;52.310;17.016;2023-04-15T12:51:39;3.07;;;2.27;;
65071;SDS011;51663;52.310;17.016;2023-04-15T12:54:45;3.80;;;3.50;;
65071;SDS011;51663;52.310;17.016;2023-04-15T13:02:15;3.73;;;2.73;;
65071;SDS011;51663;52.310;17.016;2023-04-15T13:05:57;2.67;;;2.47;;
65071;SDS011;51663;52.310;17.016;2023-04-15T13:09:09;3.70;;;2.47;;
65071;SDS011;51663;52.310;17.016;2023-04-15T13:12:12;4.03;;;3.50;;
65071;SDS011;51663;52.310;17.016;2023-04-15T13:15:18;2.33;;;2.13;;
65071;SDS011;51663;52.310;17.016;2023-04-15T13:18:31;3.13;;;2.80;;
65071;SDS011;51663;52.310;17.016;2023-04-15T13:22:28;3.53;;;2.50;;
65071;SDS011;51663;52.310;17.016;2023-04-15T13:26:10;7.00;;;2.30;;
65071;SDS011;51663;52.310;17.016;2023-04-15T13:29:50;2.10;;;1.90;;
65071;SDS011;51663;52.310;17.016;2023-04-15T13:32:52;3.20;;;2.30;;
65071;SDS011;51663;52.310;17.016;2023-04-15T13:35:55;2.97;;;2.37;;
65071;SDS011;51663;52.310;17.016;2023-04-15T13:38:58;2.37;;;2.17;;
65071;SDS011;51663;52.310;17.016;2023-04-15T13:42:00;2.70;;;2.50;;
65071;SDS011;51663;52.310;17.016;2023-04-15T13:45:04;3.70;;;2.87;;
65071;SDS011;51663;52.310;17.016;2023-04-15T13:48:07;4.30;;;3.10;;
65071;SDS011;51663;52.310;17.016;2023-04-15T13:51:13;3.93;;;3.27;;
65071;SDS011;51663;52.310;17.016;2023-04-15T13:54:17;3.00;;;2.70;;
65071;SDS011;51663;52.310;17.016;2023-04-15T13:57:23;3.50;;;3.20;;
65071;SDS011;51663;52.310;17.016;2023-04-15T14:00:35;4.97;;;2.88;;
65071;SDS011;51663;52.310;17.016;2023-04-15T14:03:43;3.03;;;2.30;;
65071;SDS011;51663;52.310;17.016;2023-04-15T14:06:48;2.90;;;2.70;;
65071;SDS011;51663;52.310;17.016;2023-04-15T14:10:09;4.17;;;2.80;;
65071;SDS011;51663;52.310;17.016;2023-04-15T14:14:01;3.37;;;2.90;;
65071;SDS011;51663;52.310;17.016;2023-04-15T14:17:50;3.10;;;2.90;;
65071;SDS011;51663;52.310;17.016;2023-04-15T14:21:15;3.37;;;3.07;;
65071;SDS011;51663;52.310;17.016;2023-04-15T14:25:28;4.20;;;2.87;;
65071;SDS011;51663;52.310;17.016;2023-04-15T14:28:45;3.67;;;3.37;;
65071;SDS011;51663;52.310;17.016;2023-04-15T14:32:33;3.70;;;3.03;;
65071;SDS011;51663;52.310;17.016;2023-04-15T14:35:36;4.00;;;3.70;;
65071;SDS011;51663;52.310;17.016;2023-04-15T14:38:39;4.40;;;4.10;;
65071;SDS011;51663;52.310;17.016;2023-04-15T14:41:41;10.03;;;9.00;;
65071;SDS011;51663;52.310;17.016;2023-04-15T14:44:44;22.67;;;18.27;;
65071;SDS011;51663;52.310;17.016;2023-04-15T14:47:46;22.87;;;16.27;;
65071;SDS011;51663;52.310;17.016;2023-04-15T14:50:52;7.77;;;7.07;;
65071;SDS011;51663;52.310;17.016;2023-04-15T14:55:47;9.03;;;8.13;;
65071;SDS011;51663;52.310;17.016;2023-04-15T15:00:03;4.30;;;4.00;;
65071;SDS011;51663;52.310;17.016;2023-04-15T15:09:23;16.83;;;13.90;;
65071;SDS011;51663;52.310;17.016;2023-04-15T15:12:34;9.23;;;8.33;;
65071;SDS011;51663;52.310;17.016;2023-04-15T15:15:42;4.57;;;4.17;;
65071;SDS011;51663;52.310;17.016;2023-04-15T15:27:55;12.70;;;9.67;;
65071;SDS011;51663;52.310;17.016;2023-04-15T15:31:47;40.67;;;21.67;;
65071;SDS011;51663;52.310;17.016;2023-04-15T15:35:56;37.00;;;19.77;;
65071;SDS011;51663;52.310;17.016;2023-04-15T15:47:30;76.03;;;40.03;;
65071;SDS011;51663;52.310;17.016;2023-04-15T15:51:48;24.80;;;16.00;;
65071;SDS011;51663;52.310;17.016;2023-04-15T15:54:51;90.53;;;47.33;;
65071;SDS011;51663;52.310;17.016;2023-04-15T15:57:53;18.13;;;11.90;;
65071;SDS011;51663;52.310;17.016;2023-04-15T16:00:56;6.23;;;5.73;;
65071;SDS011;51663;52.310;17.016;2023-04-15T16:04:00;6.07;;;5.67;;
65071;SDS011;51663;52.310;17.016;2023-04-15T16:07:03;5.83;;;5.33;;
65071;SDS011;51663;52.310;17.016;2023-04-15T16:10:06;5.07;;;4.67;;
65071;SDS011;51663;52.310;17.016;2023-04-15T16:13:09;5.33;;;4.47;;
65071;SDS011;51663;52.310;17.016;2023-04-15T16:16:11;5.90;;;5.40;;
65071;SDS011;51663;52.310;17.016;2023-04-15T16:19:14;6.13;;;5.63;;
65071;SDS011;51663;52.310;17.016;2023-04-15T16:22:17;5.93;;;5.43;;
65071;SDS011;51663;52.310;17.016;2023-04-15T16:25:19;6.87;;;6.17;;
65071;SDS011;51663;52.310;17.016;2023-04-15T16:28:22;9.93;;;7.53;;
65071;SDS011;51663;52.310;17.016;2023-04-15T16:31:28;11.40;;;8.47;;
65071;SDS011;51663;52.310;17.016;2023-04-15T16:34:30;28.87;;;16.30;;
65071;SDS011;51663;52.310;17.016;2023-04-15T16:37:33;39.00;;;21.10;;
65071;SDS011;51663;52.310;17.016;2023-04-15T16:40:36;58.07;;;31.50;;
65071;SDS011;51663;52.310;17.016;2023-04-15T16:43:39;52.50;;;26.10;;
65071;SDS011;51663;52.310;17.016;2023-04-15T16:46:41;34.40;;;17.13;;
65071;SDS011;51663;52.310;17.016;2023-04-15T16:49:44;7.23;;;6.53;;
65071;SDS011;51663;52.310;17.016;2023-04-15T16:52:46;29.10;;;16.43;;
65071;SDS011;51663;52.310;17.016;2023-04-15T16:55:49;76.73;;;35.63;;
65071;SDS011;51663;52.310;17.016;2023-04-15T16:58:51;16.33;;;12.40;;
65071;SDS011;51663;52.310;17.016;2023-04-15T17:01:54;10.27;;;9.13;;
65071;SDS011;51663;52.310;17.016;2023-04-15T17:04:56;10.77;;;9.67;;
65071;SDS011;51663;52.310;17.016;2023-04-15T17:07:58;9.27;;;8.10;;
65071;SDS011;51663;52.310;17.016;2023-04-15T17:11:01;19.83;;;12.80;;
65071;SDS011;51663;52.310;17.016;2023-04-15T17:14:03;55.23;;;29.53;;
65071;SDS011;51663;52.310;17.016;2023-04-15T17:17:08;40.27;;;22.30;;
65071;SDS011;51663;52.310;17.016;2023-04-15T17:20:17;26.40;;;18.43;;
65071;SDS011;51663;52.310;17.016;2023-04-15T17:23:24;46.83;;;28.37;;
65071;SDS011;51663;52.310;17.016;2023-04-15T17:26:32;13.60;;;11.27;;
65071;SDS011;51663;52.310;17.016;2023-04-15T17:33:14;45.20;;;29.43;;
65071;SDS011;51663;52.310;17.016;2023-04-15T17:36:43;80.53;;;39.53;;
65071;SDS011;51663;52.310;17.016;2023-04-15T17:40:02;68.10;;;35.00;;
65071;SDS011;51663;52.310;17.016;2023-04-15T17:43:16;55.23;;;30.33;;
65071;SDS011;51663;52.310;17.016;2023-04-15T17:50:16;53.00;;;27.67;;
65071;SDS011;51663;52.310;17.016;2023-04-15T17:53:44;34.03;;;20.93;;
65071;SDS011;51663;52.310;17.016;2023-04-15T17:57:28;31.17;;;20.23;;
65071;SDS011;51663;52.310;17.016;2023-04-15T18:00:32;34.87;;;20.87;;
65071;SDS011;51663;52.310;17.016;2023-04-15T18:12:49;26.97;;;17.03;;
65071;SDS011;51663;52.310;17.016;2023-04-15T18:21:44;15.43;;;12.27;;
65071;SDS011;51663;52.310;17.016;2023-04-15T18:30:10;25.87;;;18.33;;
65071;SDS011;51663;52.310;17.016;2023-04-15T18:33:47;31.97;;;20.60;;
65071;SDS011;51663;52.310;17.016;2023-04-15T18:37:18;28.47;;;18.10;;
65071;SDS011;51663;52.310;17.016;2023-04-15T18:40:52;67.27;;;34.93;;
65071;SDS011;51663;52.310;17.016;2023-04-15T18:44:28;47.63;;;26.50;;
65071;SDS011;51663;52.310;17.016;2023-04-15T18:47:33;16.20;;;11.93;;
65071;SDS011;51663;52.310;17.016;2023-04-15T18:51:25;17.43;;;12.70;;
65071;SDS011;51663;52.310;17.016;2023-04-15T18:54:30;7.53;;;6.77;;
65071;SDS011;51663;52.310;17.016;2023-04-15T18:57:36;7.73;;;5.70;;
65071;SDS011;51663;52.310;17.016;2023-04-15T19:00:48;6.57;;;5.47;;
65071;SDS011;51663;52.310;17.016;2023-04-15T19:04:07;6.03;;;5.43;;
65071;SDS011;51663;52.310;17.016;2023-04-15T19:10:57;15.27;;;12.63;;
65071;SDS011;51663;52.310;17.016;2023-04-15T19:14:00;19.93;;;16.97;;
65071;SDS011;51663;52.310;17.016;2023-04-15T19:17:14;12.30;;;11.10;;
65071;SDS011;51663;52.310;17.016;2023-04-15T19:20:22;9.97;;;9.03;;
65071;SDS011;51663;52.310;17.016;2023-04-15T19:24:06;9.57;;;8.70;;
65071;SDS011;51663;52.310;17.016;2023-04-15T19:27:10;9.40;;;8.47;;
65071;SDS011;51663;52.310;17.016;2023-04-15T19:30:13;11.43;;;9.57;;
65071;SDS011;51663;52.310;17.016;2023-04-15T19:33:15;9.17;;;8.27;;
65071;SDS011;51663;52.310;17.016;2023-04-15T19:36:20;12.10;;;10.43;;
65071;SDS011;51663;52.310;17.016;2023-04-15T19:39:22;10.60;;;9.60;;
65071;SDS011;51663;52.310;17.016;2023-04-15T19:42:25;11.90;;;10.70;;
65071;SDS011;51663;52.310;17.016;2023-04-15T19:45:30;13.80;;;12.37;;
65071;SDS011;51663;52.310;17.016;2023-04-15T19:48:34;14.53;;;13.07;;
65071;SDS011;51663;52.310;17.016;2023-04-15T19:51:51;15.47;;;13.00;;
65071;SDS011;51663;52.310;17.016;2023-04-15T19:54:57;14.70;;;12.97;;
65071;SDS011;51663;52.310;17.016;2023-04-15T19:58:26;15.20;;;12.67;;
65071;SDS011;51663;52.310;17.016;2023-04-15T20:01:31;14.57;;;13.07;;
65071;SDS011;51663;52.310;17.016;2023-04-15T20:04:33;13.93;;;12.00;;
65071;SDS011;51663;52.310;17.016;2023-04-15T20:07:35;13.17;;;11.97;;
65071;SDS011;51663;52.310;17.016;2023-04-15T20:10:37;14.97;;;13.33;;
65071;SDS011;51663;52.310;17.016;2023-04-15T20:13:40;15.27;;;13.40;;
65071;SDS011;51663;52.310;17.016;2023-04-15T20:16:42;14.07;;;12.33;;
65071;SDS011;51663;52.310;17.016;2023-04-15T20:19:44;14.67;;;13.17;;
65071;SDS011;51663;52.310;17.016;2023-04-15T20:22:46;28.00;;;22.93;;
65071;SDS011;51663;52.310;17.016;2023-04-15T20:25:49;33.00;;;25.23;;
65071;SDS011;51663;52.310;17.016;2023-04-15T20:28:52;38.10;;;28.40;;
65071;SDS011;51663;52.310;17.016;2023-04-15T20:31:59;38.43;;;27.47;;
65071;SDS011;51663;52.310;17.016;2023-04-15T20:35:12;39.23;;;27.33;;
65071;SDS011;51663;52.310;17.016;2023-04-15T20:38:18;28.87;;;20.97;;
65071;SDS011;51663;52.310;17.016;2023-04-15T20:41:35;27.30;;;22.17;;
65071;SDS011;51663;52.310;17.016;2023-04-15T20:44:37;38.67;;;26.07;;
65071;SDS011;51663;52.310;17.016;2023-04-15T20:47:40;38.40;;;28.57;;
65071;SDS011;51663;52.310;17.016;2023-04-15T20:50:42;38.23;;;27.87;;
65071;SDS011;51663;52.310;17.016;2023-04-15T20:53:47;40.87;;;28.17;;
65071;SDS011;51663;52.310;17.016;2023-04-15T20:57:03;44.37;;;28.90;;
65071;SDS011;51663;52.310;17.016;2023-04-15T21:00:12;44.80;;;28.37;;
65071;SDS011;51663;52.310;17.016;2023-04-15T21:03:16;31.97;;;23.33;;
65071;SDS011;51663;52.310;17.016;2023-04-15T21:06:18;20.83;;;18.20;;
65071;SDS011;51663;52.310;17.016;2023-04-15T21:09:20;33.00;;;19.93;;
65071;SDS011;51663;52.310;17.016;2023-04-15T21:12:28;30.23;;;20.43;;
65071;SDS011;51663;52.310;17.016;2023-04-15T21:15:30;33.17;;;23.90;;
65071;SDS011;51663;52.310;17.016;2023-04-15T21:18:36;35.07;;;24.27;;
65071;SDS011;51663;52.310;17.016;2023-04-15T21:21:41;36.60;;;25.47;;
65071;SDS011;51663;52.310;17.016;2023-04-15T21:24:43;41.23;;;24.80;;
65071;SDS011;51663;52.310;17.016;2023-04-15T21:27:47;39.80;;;25.27;;
65071;SDS011;51663;52.310;17.016;2023-04-15T21:30:50;49.50;;;27.97;;
65071;SDS011;51663;52.310;17.016;2023-04-15T21:33:53;42.67;;;26.20;;
65071;SDS011;51663;52.310;17.016;2023-04-15T21:36:55;40.90;;;25.50;;
65071;SDS011;51663;52.310;17.016;2023-04-15T21:39:58;44.93;;;28.97;;
65071;SDS011;51663;52.310;17.016;2023-04-15T21:43:00;44.17;;;26.70;;
65071;SDS011;51663;52.310;17.016;2023-04-15T21:46:03;47.13;;;29.23;;
65071;SDS011;51663;52.310;17.016;2023-04-15T21:49:25;38.33;;;25.63;;
65071;SDS011;51663;52.310;17.016;2023-04-15T21:52:27;34.07;;;23.83;;
65071;SDS011;51663;52.310;17.016;2023-04-15T21:55:29;32.63;;;22.80;;
65071;SDS011;51663;52.310;17.016;2023-04-15T21:58:31;28.23;;;21.70;;
65071;SDS011;51663;52.310;17.016;2023-04-15T22:01:34;30.50;;;23.00;;
65071;SDS011;51663;52.310;17.016;2023-04-15T22:04:36;33.40;;;23.73;;
65071;SDS011;51663;52.310;17.016;2023-04-15T22:07:38;33.47;;;23.63;;